sensor_id;sensor_type;location;lat;lon;timestamp;temperature;humidity
11423;DHT22;5768;51.476;7.210;2022-07-04T00:01:05;17.40;11.30
11423;DHT22;5768;51.476;7.210;2022-07-04T00:04:07;17.30;11.30
11423;DHT22;5768;51.476;7.210;2022-07-04T00:07:09;17.20;11.30
11423;DHT22;5768;51.476;7.210;2022-07-04T00:10:14;17.30;11.30
11423;DHT22;5768;51.476;7.210;2022-07-04T00:13:18;17.30;11.40
11423;DHT22;5768;51.476;7.210;2022-07-04T00:16:20;17.20;11.40
11423;DHT22;5768;51.476;7.210;2022-07-04T00:19:22;17.10;11.50
11423;DHT22;5768;51.476;7.210;2022-07-04T00:22:24;17.10;11.50
11423;DHT22;5768;51.476;7.210;2022-07-04T00:25:28;17.00;11.50
11423;DHT22;5768;51.476;7.210;2022-07-04T00:28:30;17.10;11.60
11423;DHT22;5768;51.476;7.210;2022-07-04T00:31:32;17.00;11.60
11423;DHT22;5768;51.476;7.210;2022-07-04T00:34:34;17.00;11.70
11423;DHT22;5768;51.476;7.210;2022-07-04T00:37:37;16.90;11.80
11423;DHT22;5768;51.476;7.210;2022-07-04T00:40:41;16.90;11.80
11423;DHT22;5768;51.476;7.210;2022-07-04T00:43:43;16.90;11.80
11423;DHT22;5768;51.476;7.210;2022-07-04T00:46:47;16.90;11.80
11423;DHT22;5768;51.476;7.210;2022-07-04T00:49:49;17.00;11.80
11423;DHT22;5768;51.476;7.210;2022-07-04T00:52:52;17.00;11.90
11423;DHT22;5768;51.476;7.210;2022-07-04T00:55:56;16.90;11.90
11423;DHT22;5768;51.476;7.210;2022-07-04T00:58:58;16.80;11.90
11423;DHT22;5768;51.476;7.210;2022-07-04T01:02:01;16.70;12.00
11423;DHT22;5768;51.476;7.210;2022-07-04T01:05:03;16.70;12.10
11423;DHT22;5768;51.476;7.210;2022-07-04T01:08:07;16.70;12.10
11423;DHT22;5768;51.476;7.210;2022-07-04T01:11:12;16.70;12.20
11423;DHT22;5768;51.476;7.210;2022-07-04T01:14:15;16.60;12.30
11423;DHT22;5768;51.476;7.210;2022-07-04T01:17:17;16.70;12.30
11423;DHT22;5768;51.476;7.210;2022-07-04T01:20:20;16.70;12.30
11423;DHT22;5768;51.476;7.210;2022-07-04T01:23:23;16.60;12.40
11423;DHT22;5768;51.476;7.210;2022-07-04T01:26:26;16.60;12.40
11423;DHT22;5768;51.476;7.210;2022-07-04T01:29:30;16.60;12.50
11423;DHT22;5768;51.476;7.210;2022-07-04T01:32:33;16.50;12.60
11423;DHT22;5768;51.476;7.210;2022-07-04T01:35:36;16.50;12.60
11423;DHT22;5768;51.476;7.210;2022-07-04T01:38:39;16.50;12.70
11423;DHT22;5768;51.476;7.210;2022-07-04T01:41:41;16.50;12.80
11423;DHT22;5768;51.476;7.210;2022-07-04T01:44:43;16.50;12.80
11423;DHT22;5768;51.476;7.210;2022-07-04T01:47:45;16.60;12.80
11423;DHT22;5768;51.476;7.210;2022-07-04T01:50:49;16.40;12.90
11423;DHT22;5768;51.476;7.210;2022-07-04T01:53:51;16.50;13.00
11423;DHT22;5768;51.476;7.210;2022-07-04T01:56:53;16.60;13.00
11423;DHT22;5768;51.476;7.210;2022-07-04T01:59:55;16.60;13.10
11423;DHT22;5768;51.476;7.210;2022-07-04T02:03:15;16.50;13.10
11423;DHT22;5768;51.476;7.210;2022-07-04T02:06:19;16.40;13.20
11423;DHT22;5768;51.476;7.210;2022-07-04T02:09:21;16.40;13.30
11423;DHT22;5768;51.476;7.210;2022-07-04T02:12:23;16.30;13.40
11423;DHT22;5768;51.476;7.210;2022-07-04T02:15:43;16.40;13.40
11423;DHT22;5768;51.476;7.210;2022-07-04T02:18:45;16.30;13.60
11423;DHT22;5768;51.476;7.210;2022-07-04T02:21:48;16.40;13.60
11423;DHT22;5768;51.476;7.210;2022-07-04T02:24:50;16.50;13.50
11423;DHT22;5768;51.476;7.210;2022-07-04T02:27:53;16.40;13.60
11423;DHT22;5768;51.476;7.210;2022-07-04T02:30:55;16.40;13.60
11423;DHT22;5768;51.476;7.210;2022-07-04T02:33:57;16.50;13.60
11423;DHT22;5768;51.476;7.210;2022-07-04T02:37:01;16.50;13.60
11423;DHT22;5768;51.476;7.210;2022-07-04T02:40:05;16.40;13.70
11423;DHT22;5768;51.476;7.210;2022-07-04T02:43:07;16.40;13.70
11423;DHT22;5768;51.476;7.210;2022-07-04T02:46:10;16.40;13.80
11423;DHT22;5768;51.476;7.210;2022-07-04T02:49:12;16.30;13.80
11423;DHT22;5768;51.476;7.210;2022-07-04T02:52:15;16.20;13.80
11423;DHT22;5768;51.476;7.210;2022-07-04T02:55:17;16.20;13.90
11423;DHT22;5768;51.476;7.210;2022-07-04T02:58:21;16.20;14.00
11423;DHT22;5768;51.476;7.210;2022-07-04T03:01:23;16.10;14.00
11423;DHT22;5768;51.476;7.210;2022-07-04T03:04:25;16.10;14.10
11423;DHT22;5768;51.476;7.210;2022-07-04T03:07:28;16.10;14.20
11423;DHT22;5768;51.476;7.210;2022-07-04T03:10:30;16.10;14.20
11423;DHT22;5768;51.476;7.210;2022-07-04T03:13:33;16.00;14.30
11423;DHT22;5768;51.476;7.210;2022-07-04T03:16:35;16.00;14.30
11423;DHT22;5768;51.476;7.210;2022-07-04T03:19:38;16.00;14.40
11423;DHT22;5768;51.476;7.210;2022-07-04T03:22:41;15.90;14.50
11423;DHT22;5768;51.476;7.210;2022-07-04T03:25:43;15.80;14.60
11423;DHT22;5768;51.476;7.210;2022-07-04T03:28:45;15.80;14.60
11423;DHT22;5768;51.476;7.210;2022-07-04T03:31:48;15.90;14.60
11423;DHT22;5768;51.476;7.210;2022-07-04T03:34:50;16.00;14.70
11423;DHT22;5768;51.476;7.210;2022-07-04T03:37:53;15.80;14.70
11423;DHT22;5768;51.476;7.210;2022-07-04T03:40:55;15.80;14.80
11423;DHT22;5768;51.476;7.210;2022-07-04T03:43:57;15.80;14.80
11423;DHT22;5768;51.476;7.210;2022-07-04T03:47:00;15.80;14.90
11423;DHT22;5768;51.476;7.210;2022-07-04T03:50:04;15.90;14.90
11423;DHT22;5768;51.476;7.210;2022-07-04T03:53:08;15.70;14.90
11423;DHT22;5768;51.476;7.210;2022-07-04T03:56:10;15.70;15.00
11423;DHT22;5768;51.476;7.210;2022-07-04T03:59:12;15.70;15.00
11423;DHT22;5768;51.476;7.210;2022-07-04T04:02:14;15.70;15.10
11423;DHT22;5768;51.476;7.210;2022-07-04T04:05:16;15.90;15.10
11423;DHT22;5768;51.476;7.210;2022-07-04T04:08:28;15.80;15.00
11423;DHT22;5768;51.476;7.210;2022-07-04T04:11:30;15.80;15.00
11423;DHT22;5768;51.476;7.210;2022-07-04T04:14:32;15.90;15.00
11423;DHT22;5768;51.476;7.210;2022-07-04T04:17:34;16.00;15.00
11423;DHT22;5768;51.476;7.210;2022-07-04T04:20:37;16.00;15.00
11423;DHT22;5768;51.476;7.210;2022-07-04T04:23:40;16.10;15.00
11423;DHT22;5768;51.476;7.210;2022-07-04T04:26:42;16.10;14.90
11423;DHT22;5768;51.476;7.210;2022-07-04T04:29:44;16.20;14.90
11423;DHT22;5768;51.476;7.210;2022-07-04T04:32:46;16.10;15.00
11423;DHT22;5768;51.476;7.210;2022-07-04T04:35:48;16.10;15.10
11423;DHT22;5768;51.476;7.210;2022-07-04T04:38:52;16.20;15.10
11423;DHT22;5768;51.476;7.210;2022-07-04T04:41:54;16.30;15.10
11423;DHT22;5768;51.476;7.210;2022-07-04T04:44:56;16.30;15.10
11423;DHT22;5768;51.476;7.210;2022-07-04T04:47:58;16.40;15.10
11423;DHT22;5768;51.476;7.210;2022-07-04T04:51:00;16.40;15.10
11423;DHT22;5768;51.476;7.210;2022-07-04T04:54:04;16.40;15.20
11423;DHT22;5768;51.476;7.210;2022-07-04T04:57:06;16.40;15.20
11423;DHT22;5768;51.476;7.210;2022-07-04T05:00:10;16.60;15.20
11423;DHT22;5768;51.476;7.210;2022-07-04T05:03:12;16.50;15.20
11423;DHT22;5768;51.476;7.210;2022-07-04T05:06:14;16.60;15.20
11423;DHT22;5768;51.476;7.210;2022-07-04T05:09:18;16.80;15.10
11423;DHT22;5768;51.476;7.210;2022-07-04T05:12:21;16.80;15.10
11423;DHT22;5768;51.476;7.210;2022-07-04T05:15:23;16.70;15.10
11423;DHT22;5768;51.476;7.210;2022-07-04T05:18:25;16.80;15.00
11423;DHT22;5768;51.476;7.210;2022-07-04T05:21:28;16.60;15.10
11423;DHT22;5768;51.476;7.210;2022-07-04T05:24:32;16.50;15.30
11423;DHT22;5768;51.476;7.210;2022-07-04T05:27:35;16.50;15.30
11423;DHT22;5768;51.476;7.210;2022-07-04T05:30:38;16.70;15.20
11423;DHT22;5768;51.476;7.210;2022-07-04T05:33:40;16.70;15.30
11423;DHT22;5768;51.476;7.210;2022-07-04T05:36:42;16.80;15.20
11423;DHT22;5768;51.476;7.210;2022-07-04T05:39:46;16.90;15.10
11423;DHT22;5768;51.476;7.210;2022-07-04T05:42:48;17.00;15.10
11423;DHT22;5768;51.476;7.210;2022-07-04T05:45:50;17.10;15.00
11423;DHT22;5768;51.476;7.210;2022-07-04T05:48:52;17.20;15.00
11423;DHT22;5768;51.476;7.210;2022-07-04T05:51:54;17.10;14.90
11423;DHT22;5768;51.476;7.210;2022-07-04T05:54:58;17.20;14.70
11423;DHT22;5768;51.476;7.210;2022-07-04T05:58:00;17.20;14.60
11423;DHT22;5768;51.476;7.210;2022-07-04T06:01:02;17.20;14.50
11423;DHT22;5768;51.476;7.210;2022-07-04T06:04:05;17.30;14.50
11423;DHT22;5768;51.476;7.210;2022-07-04T06:07:10;17.40;14.40
11423;DHT22;5768;51.476;7.210;2022-07-04T06:10:13;17.60;14.20
11423;DHT22;5768;51.476;7.210;2022-07-04T06:13:15;17.70;14.20
11423;DHT22;5768;51.476;7.210;2022-07-04T06:16:18;17.80;14.10
11423;DHT22;5768;51.476;7.210;2022-07-04T06:19:20;17.90;14.00
11423;DHT22;5768;51.476;7.210;2022-07-04T06:22:22;18.10;13.90
11423;DHT22;5768;51.476;7.210;2022-07-04T06:25:26;18.00;13.90
11423;DHT22;5768;51.476;7.210;2022-07-04T06:28:28;18.10;13.90
11423;DHT22;5768;51.476;7.210;2022-07-04T06:31:31;18.20;13.90
11423;DHT22;5768;51.476;7.210;2022-07-04T06:34:33;18.20;13.80
11423;DHT22;5768;51.476;7.210;2022-07-04T06:37:53;18.20;13.90
11423;DHT22;5768;51.476;7.210;2022-07-04T06:40:57;18.40;13.70
11423;DHT22;5768;51.476;7.210;2022-07-04T06:44:00;18.20;13.50
11423;DHT22;5768;51.476;7.210;2022-07-04T06:47:03;18.30;13.60
11423;DHT22;5768;51.476;7.210;2022-07-04T06:50:06;18.10;13.50
11423;DHT22;5768;51.476;7.210;2022-07-04T06:53:09;18.30;13.60
11423;DHT22;5768;51.476;7.210;2022-07-04T06:56:13;18.40;13.40
11423;DHT22;5768;51.476;7.210;2022-07-04T06:59:15;18.50;13.30
11423;DHT22;5768;51.476;7.210;2022-07-04T07:02:17;18.50;13.30
11423;DHT22;5768;51.476;7.210;2022-07-04T07:05:19;18.70;13.30
11423;DHT22;5768;51.476;7.210;2022-07-04T07:08:21;18.60;13.00
11423;DHT22;5768;51.476;7.210;2022-07-04T07:11:25;18.80;12.90
11423;DHT22;5768;51.476;7.210;2022-07-04T07:14:28;19.00;12.70
11423;DHT22;5768;51.476;7.210;2022-07-04T07:17:32;19.10;12.60
11423;DHT22;5768;51.476;7.210;2022-07-04T07:20:34;19.20;12.50
11423;DHT22;5768;51.476;7.210;2022-07-04T07:23:39;19.20;12.50
11423;DHT22;5768;51.476;7.210;2022-07-04T07:26:43;19.40;12.50
11423;DHT22;5768;51.476;7.210;2022-07-04T07:29:46;19.10;12.20
11423;DHT22;5768;51.476;7.210;2022-07-04T07:32:48;19.30;12.00
11423;DHT22;5768;51.476;7.210;2022-07-04T07:35:51;19.40;12.10
11423;DHT22;5768;51.476;7.210;2022-07-04T07:38:53;19.50;12.00
11423;DHT22;5768;51.476;7.210;2022-07-04T07:42:00;19.40;12.10
11423;DHT22;5768;51.476;7.210;2022-07-04T07:45:03;19.40;11.70
11423;DHT22;5768;51.476;7.210;2022-07-04T07:48:06;19.50;11.90
11423;DHT22;5768;51.476;7.210;2022-07-04T07:51:13;19.50;12.00
11423;DHT22;5768;51.476;7.210;2022-07-04T07:54:16;19.60;11.90
11423;DHT22;5768;51.476;7.210;2022-07-04T07:57:22;19.70;11.90
11423;DHT22;5768;51.476;7.210;2022-07-04T08:00:24;19.80;11.90
11423;DHT22;5768;51.476;7.210;2022-07-04T08:03:27;19.70;12.00
11423;DHT22;5768;51.476;7.210;2022-07-04T08:06:46;19.70;12.00
11423;DHT22;5768;51.476;7.210;2022-07-04T08:09:49;19.80;11.80
11423;DHT22;5768;51.476;7.210;2022-07-04T08:12:52;19.70;11.80
11423;DHT22;5768;51.476;7.210;2022-07-04T08:15:56;20.00;11.80
11423;DHT22;5768;51.476;7.210;2022-07-04T08:18:59;20.30;11.80
11423;DHT22;5768;51.476;7.210;2022-07-04T08:22:04;20.30;11.30
11423;DHT22;5768;51.476;7.210;2022-07-04T08:25:07;20.30;11.30
11423;DHT22;5768;51.476;7.210;2022-07-04T08:28:11;20.30;11.20
11423;DHT22;5768;51.476;7.210;2022-07-04T08:31:17;20.50;11.10
11423;DHT22;5768;51.476;7.210;2022-07-04T08:34:19;20.50;11.00
11423;DHT22;5768;51.476;7.210;2022-07-04T08:37:22;20.40;10.90
11423;DHT22;5768;51.476;7.210;2022-07-04T08:40:25;20.50;10.90
11423;DHT22;5768;51.476;7.210;2022-07-04T08:43:31;20.70;10.80
11423;DHT22;5768;51.476;7.210;2022-07-04T08:46:39;20.90;10.70
11423;DHT22;5768;51.476;7.210;2022-07-04T08:49:46;20.80;10.70
11423;DHT22;5768;51.476;7.210;2022-07-04T08:52:59;20.90;10.80
11423;DHT22;5768;51.476;7.210;2022-07-04T08:56:04;21.20;10.60
11423;DHT22;5768;51.476;7.210;2022-07-04T08:59:27;21.20;10.60
11423;DHT22;5768;51.476;7.210;2022-07-04T09:02:30;21.40;10.50
11423;DHT22;5768;51.476;7.210;2022-07-04T09:05:35;21.40;10.60
11423;DHT22;5768;51.476;7.210;2022-07-04T09:08:43;21.10;10.60
11423;DHT22;5768;51.476;7.210;2022-07-04T09:11:47;21.30;10.60
11423;DHT22;5768;51.476;7.210;2022-07-04T09:14:51;21.40;10.60
11423;DHT22;5768;51.476;7.210;2022-07-04T09:17:53;21.30;10.40
11423;DHT22;5768;51.476;7.210;2022-07-04T09:20:58;21.30;10.50
11423;DHT22;5768;51.476;7.210;2022-07-04T09:24:01;21.40;10.50
11423;DHT22;5768;51.476;7.210;2022-07-04T09:27:04;21.50;10.50
11423;DHT22;5768;51.476;7.210;2022-07-04T09:30:09;21.70;10.40
11423;DHT22;5768;51.476;7.210;2022-07-04T09:33:12;21.60;10.50
11423;DHT22;5768;51.476;7.210;2022-07-04T09:36:20;21.50;10.50
11423;DHT22;5768;51.476;7.210;2022-07-04T09:39:23;21.50;10.40
11423;DHT22;5768;51.476;7.210;2022-07-04T09:42:26;21.70;10.40
11423;DHT22;5768;51.476;7.210;2022-07-04T09:45:53;21.90;10.40
11423;DHT22;5768;51.476;7.210;2022-07-04T09:48:56;21.70;10.30
11423;DHT22;5768;51.476;7.210;2022-07-04T09:51:58;21.80;10.30
11423;DHT22;5768;51.476;7.210;2022-07-04T09:55:03;21.80;10.30
11423;DHT22;5768;51.476;7.210;2022-07-04T09:58:08;21.90;10.30
11423;DHT22;5768;51.476;7.210;2022-07-04T10:01:19;22.30;10.40
11423;DHT22;5768;51.476;7.210;2022-07-04T10:04:22;22.40;10.30
11423;DHT22;5768;51.476;7.210;2022-07-04T10:07:34;22.30;10.20
11423;DHT22;5768;51.476;7.210;2022-07-04T10:10:38;22.30;9.90
11423;DHT22;5768;51.476;7.210;2022-07-04T10:13:43;22.00;10.10
11423;DHT22;5768;51.476;7.210;2022-07-04T10:16:55;22.60;10.10
11423;DHT22;5768;51.476;7.210;2022-07-04T10:20:06;22.60;10.20
11423;DHT22;5768;51.476;7.210;2022-07-04T10:23:23;22.60;10.10
11423;DHT22;5768;51.476;7.210;2022-07-04T10:26:31;22.70;10.00
11423;DHT22;5768;51.476;7.210;2022-07-04T10:29:42;22.40;9.80
11423;DHT22;5768;51.476;7.210;2022-07-04T10:32:47;22.80;9.90
11423;DHT22;5768;51.476;7.210;2022-07-04T10:35:54;22.50;10.00
11423;DHT22;5768;51.476;7.210;2022-07-04T10:38:59;22.50;10.00
11423;DHT22;5768;51.476;7.210;2022-07-04T10:42:03;23.20;9.90
11423;DHT22;5768;51.476;7.210;2022-07-04T10:45:07;23.50;10.00
11423;DHT22;5768;51.476;7.210;2022-07-04T10:48:19;23.50;9.90
11423;DHT22;5768;51.476;7.210;2022-07-04T10:51:33;23.80;9.70
11423;DHT22;5768;51.476;7.210;2022-07-04T10:54:39;23.90;9.60
11423;DHT22;5768;51.476;7.210;2022-07-04T10:57:42;23.40;9.70
11423;DHT22;5768;51.476;7.210;2022-07-04T11:01:12;23.30;9.80
11423;DHT22;5768;51.476;7.210;2022-07-04T11:04:45;23.50;9.70
11423;DHT22;5768;51.476;7.210;2022-07-04T11:07:59;23.50;9.60
11423;DHT22;5768;51.476;7.210;2022-07-04T11:11:04;23.70;9.50
11423;DHT22;5768;51.476;7.210;2022-07-04T11:14:32;24.10;9.40
11423;DHT22;5768;51.476;7.210;2022-07-04T11:17:37;24.50;9.40
11423;DHT22;5768;51.476;7.210;2022-07-04T11:20:44;24.10;9.30
11423;DHT22;5768;51.476;7.210;2022-07-04T11:23:55;24.20;9.30
11423;DHT22;5768;51.476;7.210;2022-07-04T11:26:57;24.50;9.20
11423;DHT22;5768;51.476;7.210;2022-07-04T11:30:01;24.90;9.00
11423;DHT22;5768;51.476;7.210;2022-07-04T11:33:04;25.00;9.00
11423;DHT22;5768;51.476;7.210;2022-07-04T11:36:21;25.20;9.00
11423;DHT22;5768;51.476;7.210;2022-07-04T11:39:23;25.50;8.90
11423;DHT22;5768;51.476;7.210;2022-07-04T11:42:26;25.30;9.00
11423;DHT22;5768;51.476;7.210;2022-07-04T11:45:46;25.40;9.10
11423;DHT22;5768;51.476;7.210;2022-07-04T11:48:48;25.10;8.90
11423;DHT22;5768;51.476;7.210;2022-07-04T11:51:51;24.70;8.90
11423;DHT22;5768;51.476;7.210;2022-07-04T11:54:56;24.80;8.90
11423;DHT22;5768;51.476;7.210;2022-07-04T11:57:58;25.00;8.80
11423;DHT22;5768;51.476;7.210;2022-07-04T12:01:00;25.00;8.90
11423;DHT22;5768;51.476;7.210;2022-07-04T12:04:14;25.20;9.00
11423;DHT22;5768;51.476;7.210;2022-07-04T12:07:22;25.40;8.70
11423;DHT22;5768;51.476;7.210;2022-07-04T12:10:25;25.30;8.80
11423;DHT22;5768;51.476;7.210;2022-07-04T12:13:27;25.80;8.70
11423;DHT22;5768;51.476;7.210;2022-07-04T12:16:31;25.50;8.80
11423;DHT22;5768;51.476;7.210;2022-07-04T12:19:36;24.90;8.90
11423;DHT22;5768;51.476;7.210;2022-07-04T12:22:40;25.40;8.90
11423;DHT22;5768;51.476;7.210;2022-07-04T12:25:44;25.60;8.80
11423;DHT22;5768;51.476;7.210;2022-07-04T12:28:49;25.70;8.80
11423;DHT22;5768;51.476;7.210;2022-07-04T12:31:52;25.80;8.70
11423;DHT22;5768;51.476;7.210;2022-07-04T12:34:56;26.30;8.70
11423;DHT22;5768;51.476;7.210;2022-07-04T12:38:07;26.50;8.40
11423;DHT22;5768;51.476;7.210;2022-07-04T12:41:11;26.90;8.60
11423;DHT22;5768;51.476;7.210;2022-07-04T12:44:22;26.80;8.40
11423;DHT22;5768;51.476;7.210;2022-07-04T12:47:24;27.30;8.40
11423;DHT22;5768;51.476;7.210;2022-07-04T12:50:26;27.30;8.40
11423;DHT22;5768;51.476;7.210;2022-07-04T12:53:36;26.90;8.40
11423;DHT22;5768;51.476;7.210;2022-07-04T12:56:40;26.90;8.50
11423;DHT22;5768;51.476;7.210;2022-07-04T12:59:43;28.10;8.20
11423;DHT22;5768;51.476;7.210;2022-07-04T13:02:45;29.60;8.00
11423;DHT22;5768;51.476;7.210;2022-07-04T13:05:48;31.10;7.70
11423;DHT22;5768;51.476;7.210;2022-07-04T13:08:51;30.50;7.50
11423;DHT22;5768;51.476;7.210;2022-07-04T13:11:54;29.10;7.70
11423;DHT22;5768;51.476;7.210;2022-07-04T13:15:14;28.50;7.90
11423;DHT22;5768;51.476;7.210;2022-07-04T13:18:16;27.40;8.10
11423;DHT22;5768;51.476;7.210;2022-07-04T13:21:18;27.40;8.20
11423;DHT22;5768;51.476;7.210;2022-07-04T13:24:22;27.00;8.20
11423;DHT22;5768;51.476;7.210;2022-07-04T13:27:24;30.80;7.60
11423;DHT22;5768;51.476;7.210;2022-07-04T13:30:27;30.60;7.60
11423;DHT22;5768;51.476;7.210;2022-07-04T13:33:29;30.80;7.50
11423;DHT22;5768;51.476;7.210;2022-07-04T13:36:32;29.70;7.60
11423;DHT22;5768;51.476;7.210;2022-07-04T13:39:36;28.70;7.90
11423;DHT22;5768;51.476;7.210;2022-07-04T13:42:39;28.40;7.90
11423;DHT22;5768;51.476;7.210;2022-07-04T13:46:00;28.60;7.80
11423;DHT22;5768;51.476;7.210;2022-07-04T13:49:03;28.90;7.80
11423;DHT22;5768;51.476;7.210;2022-07-04T13:52:05;30.20;7.50
11423;DHT22;5768;51.476;7.210;2022-07-04T13:55:09;28.50;7.70
11423;DHT22;5768;51.476;7.210;2022-07-04T13:58:12;27.80;7.90
11423;DHT22;5768;51.476;7.210;2022-07-04T14:01:14;28.00;8.00
11423;DHT22;5768;51.476;7.210;2022-07-04T14:04:18;27.80;8.10
11423;DHT22;5768;51.476;7.210;2022-07-04T14:07:21;27.40;8.10
11423;DHT22;5768;51.476;7.210;2022-07-04T14:10:25;27.50;8.00
11423;DHT22;5768;51.476;7.210;2022-07-04T14:13:28;27.30;8.20
11423;DHT22;5768;51.476;7.210;2022-07-04T14:16:30;27.50;8.00
11423;DHT22;5768;51.476;7.210;2022-07-04T14:19:33;27.30;8.10
11423;DHT22;5768;51.476;7.210;2022-07-04T14:22:36;27.80;8.00
11423;DHT22;5768;51.476;7.210;2022-07-04T14:25:40;29.30;7.80
11423;DHT22;5768;51.476;7.210;2022-07-04T14:28:43;29.60;7.60
11423;DHT22;5768;51.476;7.210;2022-07-04T14:31:46;31.20;7.60
11423;DHT22;5768;51.476;7.210;2022-07-04T14:34:49;34.60;7.10
11423;DHT22;5768;51.476;7.210;2022-07-04T14:37:51;36.00;6.60
11423;DHT22;5768;51.476;7.210;2022-07-04T14:40:57;37.80;6.30
11423;DHT22;5768;51.476;7.210;2022-07-04T14:44:12;33.60;6.60
11423;DHT22;5768;51.476;7.210;2022-07-04T14:47:14;32.30;7.00
11423;DHT22;5768;51.476;7.210;2022-07-04T14:50:16;30.70;7.10
11423;DHT22;5768;51.476;7.210;2022-07-04T14:53:19;29.90;7.40
11423;DHT22;5768;51.476;7.210;2022-07-04T14:56:23;29.30;7.50
11423;DHT22;5768;51.476;7.210;2022-07-04T14:59:28;32.90;7.00
11423;DHT22;5768;51.476;7.210;2022-07-04T15:02:32;34.50;6.60
11423;DHT22;5768;51.476;7.210;2022-07-04T15:05:34;31.80;7.00
11423;DHT22;5768;51.476;7.210;2022-07-04T15:08:40;31.00;7.30
11423;DHT22;5768;51.476;7.210;2022-07-04T15:11:43;31.80;7.10
11423;DHT22;5768;51.476;7.210;2022-07-04T15:14:48;33.20;7.10
11423;DHT22;5768;51.476;7.210;2022-07-04T15:17:52;37.50;6.40
11423;DHT22;5768;51.476;7.210;2022-07-04T15:20:55;38.00;6.10
11423;DHT22;5768;51.476;7.210;2022-07-04T15:24:15;40.10;5.90
11423;DHT22;5768;51.476;7.210;2022-07-04T15:27:19;38.10;6.00
11423;DHT22;5768;51.476;7.210;2022-07-04T15:30:21;36.40;6.10
11423;DHT22;5768;51.476;7.210;2022-07-04T15:33:25;38.00;6.00
11423;DHT22;5768;51.476;7.210;2022-07-04T15:36:31;41.00;5.70
11423;DHT22;5768;51.476;7.210;2022-07-04T15:39:37;40.70;5.70
11423;DHT22;5768;51.476;7.210;2022-07-04T15:42:40;40.90;5.50
11423;DHT22;5768;51.476;7.210;2022-07-04T15:45:42;42.40;5.40
11423;DHT22;5768;51.476;7.210;2022-07-04T15:48:45;42.70;5.20
11423;DHT22;5768;51.476;7.210;2022-07-04T15:51:47;40.80;5.50
11423;DHT22;5768;51.476;7.210;2022-07-04T15:54:50;39.40;5.60
11423;DHT22;5768;51.476;7.210;2022-07-04T15:57:53;38.30;5.70
11423;DHT22;5768;51.476;7.210;2022-07-04T16:00:56;35.90;6.10
11423;DHT22;5768;51.476;7.210;2022-07-04T16:03:58;35.20;6.40
11423;DHT22;5768;51.476;7.210;2022-07-04T16:07:01;34.80;6.30
11423;DHT22;5768;51.476;7.210;2022-07-04T16:10:04;36.50;6.10
11423;DHT22;5768;51.476;7.210;2022-07-04T16:13:11;35.80;6.10
11423;DHT22;5768;51.476;7.210;2022-07-04T16:16:16;33.60;6.50
11423;DHT22;5768;51.476;7.210;2022-07-04T16:19:23;32.20;6.80
11423;DHT22;5768;51.476;7.210;2022-07-04T16:22:25;33.00;6.90
11423;DHT22;5768;51.476;7.210;2022-07-04T16:25:28;34.80;6.60
11423;DHT22;5768;51.476;7.210;2022-07-04T16:28:35;33.50;6.80
11423;DHT22;5768;51.476;7.210;2022-07-04T16:31:37;34.70;6.60
11423;DHT22;5768;51.476;7.210;2022-07-04T16:34:40;38.30;6.20
11423;DHT22;5768;51.476;7.210;2022-07-04T16:37:42;40.30;5.90
11423;DHT22;5768;51.476;7.210;2022-07-04T16:40:46;41.90;5.70
11423;DHT22;5768;51.476;7.210;2022-07-04T16:43:50;41.00;5.60
11423;DHT22;5768;51.476;7.210;2022-07-04T16:46:53;39.80;5.60
11423;DHT22;5768;51.476;7.210;2022-07-04T16:49:55;37.20;5.80
11423;DHT22;5768;51.476;7.210;2022-07-04T16:52:57;38.40;5.80
11423;DHT22;5768;51.476;7.210;2022-07-04T16:56:00;37.70;5.80
11423;DHT22;5768;51.476;7.210;2022-07-04T16:59:03;34.50;6.40
11423;DHT22;5768;51.476;7.210;2022-07-04T17:02:06;33.60;6.70
11423;DHT22;5768;51.476;7.210;2022-07-04T17:05:09;35.70;6.40
11423;DHT22;5768;51.476;7.210;2022-07-04T17:08:11;34.90;6.50
11423;DHT22;5768;51.476;7.210;2022-07-04T17:11:13;33.40;6.70
11423;DHT22;5768;51.476;7.210;2022-07-04T17:14:17;31.30;7.00
11423;DHT22;5768;51.476;7.210;2022-07-04T17:17:19;30.10;7.30
11423;DHT22;5768;51.476;7.210;2022-07-04T17:20:22;30.60;7.20
11423;DHT22;5768;51.476;7.210;2022-07-04T17:23:24;34.70;6.70
11423;DHT22;5768;51.476;7.210;2022-07-04T17:26:27;37.30;6.40
11423;DHT22;5768;51.476;7.210;2022-07-04T17:29:31;38.50;6.20
11423;DHT22;5768;51.476;7.210;2022-07-04T17:32:37;37.60;6.20
11423;DHT22;5768;51.476;7.210;2022-07-04T17:35:40;38.50;6.10
11423;DHT22;5768;51.476;7.210;2022-07-04T17:38:43;37.40;6.40
11423;DHT22;5768;51.476;7.210;2022-07-04T17:41:45;32.50;6.80
11423;DHT22;5768;51.476;7.210;2022-07-04T17:44:51;30.40;7.40
11423;DHT22;5768;51.476;7.210;2022-07-04T17:47:53;28.60;7.90
11423;DHT22;5768;51.476;7.210;2022-07-04T17:50:56;28.20;8.00
11423;DHT22;5768;51.476;7.210;2022-07-04T17:53:58;28.70;7.90
11423;DHT22;5768;51.476;7.210;2022-07-04T17:57:00;32.00;7.40
11423;DHT22;5768;51.476;7.210;2022-07-04T18:00:05;34.80;7.00
11423;DHT22;5768;51.476;7.210;2022-07-04T18:03:08;36.60;6.70
11423;DHT22;5768;51.476;7.210;2022-07-04T18:06:11;36.40;6.60
11423;DHT22;5768;51.476;7.210;2022-07-04T18:09:14;37.40;6.50
11423;DHT22;5768;51.476;7.210;2022-07-04T18:12:16;38.40;6.40
11423;DHT22;5768;51.476;7.210;2022-07-04T18:15:19;37.40;6.40
11423;DHT22;5768;51.476;7.210;2022-07-04T18:18:22;36.90;6.50
11423;DHT22;5768;51.476;7.210;2022-07-04T18:21:24;36.20;6.60
11423;DHT22;5768;51.476;7.210;2022-07-04T18:24:27;37.00;6.50
11423;DHT22;5768;51.476;7.210;2022-07-04T18:27:29;35.70;6.60
11423;DHT22;5768;51.476;7.210;2022-07-04T18:30:33;34.50;6.80
11423;DHT22;5768;51.476;7.210;2022-07-04T18:33:36;35.60;6.80
11423;DHT22;5768;51.476;7.210;2022-07-04T18:36:39;35.90;6.70
11423;DHT22;5768;51.476;7.210;2022-07-04T18:39:41;36.40;6.60
11423;DHT22;5768;51.476;7.210;2022-07-04T18:42:43;35.00;6.80
11423;DHT22;5768;51.476;7.210;2022-07-04T18:46:02;34.80;6.80
11423;DHT22;5768;51.476;7.210;2022-07-04T18:49:05;34.70;6.90
11423;DHT22;5768;51.476;7.210;2022-07-04T18:52:07;34.70;6.80
11423;DHT22;5768;51.476;7.210;2022-07-04T18:55:18;33.80;7.00
11423;DHT22;5768;51.476;7.210;2022-07-04T18:58:21;33.10;7.10
11423;DHT22;5768;51.476;7.210;2022-07-04T19:01:25;32.80;7.20
11423;DHT22;5768;51.476;7.210;2022-07-04T19:04:27;32.50;7.20
11423;DHT22;5768;51.476;7.210;2022-07-04T19:07:29;31.70;7.40
11423;DHT22;5768;51.476;7.210;2022-07-04T19:10:32;30.80;7.50
11423;DHT22;5768;51.476;7.210;2022-07-04T19:13:35;30.30;7.60
11423;DHT22;5768;51.476;7.210;2022-07-04T19:16:38;29.60;7.80
11423;DHT22;5768;51.476;7.210;2022-07-04T19:19:41;29.40;7.80
11423;DHT22;5768;51.476;7.210;2022-07-04T19:22:43;29.20;7.90
11423;DHT22;5768;51.476;7.210;2022-07-04T19:25:46;28.30;8.00
11423;DHT22;5768;51.476;7.210;2022-07-04T19:28:48;27.30;8.30
11423;DHT22;5768;51.476;7.210;2022-07-04T19:31:53;27.00;8.40
11423;DHT22;5768;51.476;7.210;2022-07-04T19:34:55;26.40;8.50
11423;DHT22;5768;51.476;7.210;2022-07-04T19:37:58;26.30;8.60
11423;DHT22;5768;51.476;7.210;2022-07-04T19:41:01;26.00;8.70
11423;DHT22;5768;51.476;7.210;2022-07-04T19:44:04;25.60;8.80
11423;DHT22;5768;51.476;7.210;2022-07-04T19:47:09;24.90;9.00
11423;DHT22;5768;51.476;7.210;2022-07-04T19:50:12;24.40;9.10